Time;durP1;ratioP1;P1;durP2;ratioP2;P2;SDS_P1;SDS_P2;PMS_P1;PMS_P2;Temp;Humidity;BMP_temperature;BMP_pressure;BME280_temperature;BME280_humidity;BME280_pressure;Samples;Min_cycle;Max_cycle;Signal;HPM_P1;HPM_P2
2023/09/19 00:01:30;;;;;;;7.50;2.17;;;;;;;18.33;73.22;99069.66;5045319;28;20159;-71
2023/09/19 00:03:57;;;;;;;8.45;2.50;;;;;;;18.47;74.04;99072.94;5044513;28;20079;-71
2023/09/19 00:06:25;;;;;;;8.30;2.78;;;;;;;18.40;73.66;99081.78;5045047;28;20055;-71
2023/09/19 00:08:51;;;;;;;7.47;2.40;;;;;;;18.41;73.76;99090.84;5044039;28;20550;-71
2023/09/19 00:11:16;;;;;;;4.20;2.00;;;;;;;18.47;73.65;99088.72;5045099;28;20123;-71
2023/09/19 00:13:41;;;;;;;12.57;2.93;;;;;;;18.28;73.84;99099.06;5044860;28;20037;-71
2023/09/19 00:16:11;;;;;;;7.97;1.70;;;;;;;18.26;74.03;99090.31;5044713;28;20319;-75
2023/09/19 00:18:38;;;;;;;5.82;2.10;;;;;;;18.16;74.01;99096.16;5044643;28;20807;-74
2023/09/19 00:21:07;;;;;;;6.35;2.42;;;;;;;18.06;74.25;99095.38;5044517;28;20037;-74
2023/09/19 00:23:32;;;;;;;3.95;1.90;;;;;;;18.16;74.09;99107.19;5044449;28;20037;-74
2023/09/19 00:25:59;;;;;;;10.30;2.22;;;;;;;18.15;73.36;99102.81;5044210;28;21284;-75
2023/09/19 00:28:24;;;;;;;9.32;3.15;;;;;;;18.07;73.00;99102.53;5044650;28;20132;-74
2023/09/19 00:30:54;;;;;;;15.73;3.07;;;;;;;17.85;73.06;99100.84;5043394;28;20120;-74
2023/09/19 00:33:19;;;;;;;10.20;2.90;;;;;;;17.96;73.49;99098.50;5043156;28;20270;-73
2023/09/19 00:35:49;;;;;;;6.75;2.00;;;;;;;17.99;72.94;99108.88;5043446;28;20033;-74
2023/09/19 00:38:19;;;;;;;10.63;2.05;;;;;;;18.07;72.78;99099.78;5044287;28;20043;-74
2023/09/19 00:40:45;;;;;;;7.28;1.92;;;;;;;17.91;72.49;99106.97;5044526;28;20446;-74
2023/09/19 00:43:11;;;;;;;9.30;2.65;;;;;;;17.90;71.98;99105.38;5043895;28;20062;-74
2023/09/19 00:45:38;;;;;;;7.60;2.00;;;;;;;17.97;72.13;99116.69;5043644;28;20155;-74
2023/09/19 00:48:06;;;;;;;8.57;2.20;;;;;;;18.09;71.49;99119.56;5044160;28;20033;-75
2023/09/19 00:50:33;;;;;;;4.15;1.67;;;;;;;18.00;71.21;99116.00;5044353;28;20066;-75
2023/09/19 00:52:58;;;;;;;11.73;2.40;;;;;;;17.91;71.23;99118.00;5043995;28;20056;-74
2023/09/19 00:55:25;;;;;;;6.35;2.13;;;;;;;17.87;71.10;99122.56;5043577;28;20036;-75
2023/09/19 00:57:50;;;;;;;9.65;2.50;;;;;;;17.89;71.29;99121.09;5043544;28;20040;-74
2023/09/19 01:00:19;;;;;;;5.50;1.70;;;;;;;17.76;71.40;99116.63;5043719;28;20037;-74
2023/09/19 01:02:45;;;;;;;16.80;4.47;;;;;;;17.68;71.35;99115.47;5044086;28;20048;-74
2023/09/19 01:05:12;;;;;;;12.02;2.90;;;;;;;17.66;71.65;99124.09;5042841;28;20811;-76
2023/09/19 01:07:41;;;;;;;10.98;2.08;;;;;;;17.72;71.17;99131.03;5042921;28;20046;-74
2023/09/19 01:10:09;;;;;;;12.60;1.88;;;;;;;17.53;71.39;99123.16;5043668;28;20035;-74
2023/09/19 01:13:12;;;;;;;7.65;2.67;;;;;;;17.58;70.93;99128.47;5043780;28;20110;-74
2023/09/19 01:15:52;;;;;;;8.68;1.80;;;;;;;17.81;71.16;99124.69;5043666;28;20029;-74
2023/09/19 01:18:23;;;;;;;8.18;2.13;;;;;;;17.78;71.06;99125.34;5043728;28;20040;-74
2023/09/19 01:21:05;;;;;;;9.30;1.70;;;;;;;17.62;71.00;99134.97;5043117;28;20041;-75
2023/09/19 01:23:56;;;;;;;10.30;1.55;;;;;;;17.74;71.14;99136.22;5043070;28;21295;-74
2023/09/19 01:26:29;;;;;;;9.13;2.20;;;;;;;17.68;70.52;99134.78;5044000;28;20045;-70
2023/09/19 01:29:29;;;;;;;9.80;3.03;;;;;;;17.84;70.32;99138.63;5043490;28;20041;-70
2023/09/19 01:32:01;;;;;;;13.75;2.47;;;;;;;17.76;70.61;99136.69;5043519;28;20144;-70
2023/09/19 01:34:26;;;;;;;8.13;2.15;;;;;;;17.61;70.80;99141.59;5043161;28;20037;-71
2023/09/19 01:36:52;;;;;;;12.70;2.78;;;;;;;17.52;71.33;99143.56;5043179;28;20052;-70
2023/09/19 01:39:18;;;;;;;7.00;1.77;;;;;;;17.67;71.03;99144.19;5043504;28;20032;-71
2023/09/19 01:42:06;;;;;;;36.20;3.13;;;;;;;17.73;70.61;99151.16;5042654;28;20040;-71
2023/09/19 01:44:43;;;;;;;7.63;2.70;;;;;;;17.49;70.32;99158.00;5042656;28;20028;-71
2023/09/19 01:47:35;;;;;;;12.35;2.53;;;;;;;17.35;71.28;99161.72;5042728;28;20482;-70
2023/09/19 01:50:18;;;;;;;9.02;2.15;;;;;;;17.22;71.67;99166.28;5042563;28;20473;-71
2023/09/19 01:52:49;;;;;;;7.93;2.22;;;;;;;17.38;71.78;99163.84;5043043;28;20063;-71
2023/09/19 01:55:17;;;;;;;7.00;2.05;;;;;;;17.49;71.04;99169.03;5042759;28;20494;-71
2023/09/19 01:57:52;;;;;;;11.30;2.15;;;;;;;17.34;70.74;99173.91;5043333;28;20041;-72
2023/09/19 02:00:19;;;;;;;13.02;2.30;;;;;;;17.26;71.28;99170.03;5043173;28;20116;-70
2023/09/19 02:02:52;;;;;;;5.78;1.27;;;;;;;17.21;70.90;99166.59;5041661;28;20497;-71
2023/09/19 02:05:24;;;;;;;11.38;2.60;;;;;;;17.19;70.57;99160.63;5042392;28;20071;-71
2023/09/19 02:07:50;;;;;;;10.27;2.35;;;;;;;17.34;70.99;99167.56;5042855;28;20057;-71
2023/09/19 02:10:17;;;;;;;7.10;1.77;;;;;;;17.30;70.39;99167.44;5042521;28;20135;-71
2023/09/19 02:12:42;;;;;;;10.45;2.10;;;;;;;17.35;70.61;99158.19;5042543;28;20537;-71
2023/09/19 02:15:09;;;;;;;14.57;2.38;;;;;;;17.32;70.49;99176.16;5042663;28;20124;-72
2023/09/19 02:17:34;;;;;;;14.15;3.40;;;;;;;17.38;69.59;99174.06;5043120;28;20045;-71
2023/09/19 02:20:00;;;;;;;8.02;2.00;;;;;;;17.52;69.58;99173.06;5042367;28;20074;-71
2023/09/19 02:22:26;;;;;;;8.45;2.13;;;;;;;17.51;69.33;99183.28;5042523;28;20598;-71
2023/09/19 02:24:53;;;;;;;9.52;2.10;;;;;;;17.67;68.65;99191.03;5042323;28;20103;-71
2023/09/19 02:27:19;;;;;;;9.75;2.50;;;;;;;17.79;68.20;99182.91;5042982;28;20120;-71
2023/09/19 02:29:44;;;;;;;6.57;1.80;;;;;;;17.71;68.22;99197.53;5042874;28;20037;-70
2023/09/19 02:32:10;;;;;;;5.32;1.55;;;;;;;17.34;68.54;99190.44;5042291;28;20065;-72
2023/09/19 02:34:39;;;;;;;8.90;2.65;;;;;;;17.36;69.16;99188.16;5042444;28;20656;-71
2023/09/19 02:37:05;;;;;;;8.88;2.17;;;;;;;17.36;69.09;99201.13;5043197;28;20032;-74
2023/09/19 02:39:31;;;;;;;9.13;2.00;;;;;;;17.26;69.16;99191.25;5042724;28;20083;-74
2023/09/19 02:41:57;;;;;;;16.75;4.50;;;;;;;17.22;69.28;99202.09;5042340;28;20029;-74
2023/09/19 02:44:23;;;;;;;11.93;2.58;;;;;;;17.30;69.53;99194.97;5042470;28;20115;-74
2023/09/19 02:46:49;;;;;;;9.15;2.72;;;;;;;17.23;69.32;99203.72;5042456;28;20032;-74
2023/09/19 02:49:14;;;;;;;12.02;2.08;;;;;;;17.39;69.08;99197.69;5042652;28;20044;-73
2023/09/19 02:51:39;;;;;;;11.70;2.53;;;;;;;17.46;68.92;99200.78;5042695;28;20048;-74
2023/09/19 02:54:05;;;;;;;10.13;2.15;;;;;;;17.09;69.29;99206.59;5042001;28;20029;-74
2023/09/19 02:56:32;;;;;;;8.18;1.80;;;;;;;17.07;68.70;99197.03;5042400;28;20036;-74
2023/09/19 02:58:57;;;;;;;10.20;2.45;;;;;;;17.26;68.73;99205.84;5042323;28;20486;-74
2023/09/19 03:01:23;;;;;;;7.35;2.03;;;;;;;17.24;68.79;99212.78;5042081;28;20037;-74
2023/09/19 03:03:49;;;;;;;10.70;2.28;;;;;;;17.08;68.62;99216.00;5042425;28;21224;-74
2023/09/19 03:06:15;;;;;;;18.45;2.90;;;;;;;17.15;69.27;99221.84;5042140;28;20045;-74
2023/09/19 03:08:42;;;;;;;10.90;3.00;;;;;;;17.07;69.37;99214.34;5042215;28;20036;-74
2023/09/19 03:11:11;;;;;;;8.65;1.90;;;;;;;17.12;68.64;99236.28;5042184;28;20094;-74
2023/09/19 03:13:37;;;;;;;16.00;2.42;;;;;;;17.06;68.30;99229.28;5042051;28;20673;-75
2023/09/19 03:16:06;;;;;;;13.68;3.10;;;;;;;17.06;68.43;99233.97;5042214;28;20029;-74
2023/09/19 03:18:34;;;;;;;11.68;2.30;;;;;;;17.17;68.26;99240.00;5042439;28;20039;-74
2023/09/19 03:21:00;;;;;;;13.10;3.13;;;;;;;17.19;67.58;99243.25;5042156;28;20033;-74
2023/09/19 03:23:26;;;;;;;8.20;2.08;;;;;;;17.20;67.12;99244.88;5042197;28;20190;-74
2023/09/19 03:25:52;;;;;;;12.90;2.88;;;;;;;17.15;66.60;99235.63;5041644;28;20033;-74
2023/09/19 03:28:18;;;;;;;10.35;4.38;;;;;;;17.25;66.38;99241.94;5041924;28;20513;-74
2023/09/19 03:30:43;;;;;;;8.23;1.85;;;;;;;17.30;65.53;99241.78;5043569;28;20029;-74
2023/09/19 03:33:10;;;;;;;8.18;1.80;;;;;;;17.21;64.88;99238.22;5045835;28;20039;-74
2023/09/19 03:35:36;;;;;;;9.75;2.28;;;;;;;16.92;65.70;99232.97;5045309;28;20040;-74
2023/09/19 03:38:02;;;;;;;14.55;2.45;;;;;;;16.88;65.59;99234.72;5045729;28;21235;-76
2023/09/19 03:40:28;;;;;;;7.75;2.00;;;;;;;16.91;65.44;99227.78;5045002;28;20033;-74
2023/09/19 03:42:53;;;;;;;7.63;1.85;;;;;;;16.88;65.07;99228.44;5045110;28;20037;-74
2023/09/19 03:45:19;;;;;;;6.22;2.05;;;;;;;16.74;65.47;99240.34;5045030;28;21135;-74
2023/09/19 03:47:46;;;;;;;10.95;2.67;;;;;;;16.59;65.71;99238.06;5045418;28;20049;-71
2023/09/19 03:50:12;;;;;;;6.63;2.08;;;;;;;16.76;65.51;99234.56;5045583;28;20040;-71
2023/09/19 03:52:37;;;;;;;6.82;1.52;;;;;;;16.76;65.30;99227.09;5045389;28;20033;-70
2023/09/19 03:55:04;;;;;;;9.60;2.33;;;;;;;16.80;64.82;99238.28;5044852;28;20032;-70
2023/09/19 03:57:29;;;;;;;6.88;1.98;;;;;;;16.86;65.04;99239.75;5044896;28;20037;-70
2023/09/19 03:59:55;;;;;;;8.25;1.38;;;;;;;17.00;64.55;99238.81;5045390;28;20025;-72
2023/09/19 04:02:24;;;;;;;13.02;1.83;;;;;;;17.06;64.49;99243.03;5044931;28;21175;-71
2023/09/19 04:04:52;;;;;;;6.03;1.90;;;;;;;16.94;64.68;99243.66;5044593;28;20124;-71
2023/09/19 04:07:22;;;;;;;6.57;2.58;;;;;;;16.94;65.08;99242.84;5044747;28;20025;-70
2023/09/19 04:09:49;;;;;;;14.18;2.80;;;;;;;16.99;64.54;99240.75;5045211;28;20070;-71
2023/09/19 04:12:16;;;;;;;10.65;2.85;;;;;;;17.05;65.03;99238.66;5044917;28;20040;-70
2023/09/19 04:14:42;;;;;;;6.38;1.83;;;;;;;17.03;65.02;99238.16;5044155;28;20049;-70
2023/09/19 04:17:07;;;;;;;9.32;2.22;;;;;;;16.90;64.55;99237.19;5044943;28;20033;-70
2023/09/19 04:19:32;;;;;;;13.70;1.80;;;;;;;16.67;65.79;99246.34;5044800;28;20071;-71
2023/09/19 04:21:58;;;;;;;8.60;1.70;;;;;;;16.64;66.25;99237.91;5044556;28;20323;-70
2023/09/19 04:24:23;;;;;;;9.40;2.60;;;;;;;16.78;66.13;99240.56;5044375;28;20037;-70
2023/09/19 04:26:48;;;;;;;8.73;2.72;;;;;;;16.98;65.42;99244.66;5044304;28;20779;-70
2023/09/19 04:29:14;;;;;;;8.85;1.90;;;;;;;16.92;65.66;99238.47;5045015;28;20067;-71
2023/09/19 04:31:40;;;;;;;11.77;2.60;;;;;;;16.78;66.16;99243.31;5044564;28;20066;-71
2023/09/19 04:34:05;;;;;;;11.98;2.42;;;;;;;16.88;66.40;99245.75;5043809;28;20270;-71
2023/09/19 04:36:31;;;;;;;10.68;1.88;;;;;;;16.79;65.95;99248.50;5044172;28;20039;-70
2023/09/19 04:38:56;;;;;;;15.95;2.60;;;;;;;16.80;66.73;99252.06;5044394;28;20043;-70
2023/09/19 04:41:22;;;;;;;9.57;2.13;;;;;;;16.90;66.58;99248.97;5043969;28;20044;-70
2023/09/19 04:43:49;;;;;;;10.85;1.98;;;;;;;17.05;66.26;99255.16;5044128;28;20037;-71
2023/09/19 04:46:14;;;;;;;10.25;3.65;;;;;;;16.86;66.42;99253.50;5044334;28;20051;-71
2023/09/19 04:48:40;;;;;;;11.13;2.45;;;;;;;16.95;66.48;99244.47;5044254;28;20017;-70
2023/09/19 04:51:05;;;;;;;8.02;1.65;;;;;;;17.04;66.55;99253.56;5043837;28;20040;-70
2023/09/19 04:53:30;;;;;;;7.50;1.87;;;;;;;17.05;66.23;99252.41;5044088;28;20040;-70
2023/09/19 04:55:56;;;;;;;8.87;2.47;;;;;;;17.06;66.13;99250.47;5045875;28;20245;-75
2023/09/19 04:58:22;;;;;;;15.13;2.92;;;;;;;16.98;66.09;99243.84;5044324;28;20282;-74
2023/09/19 05:00:48;;;;;;;8.63;1.95;;;;;;;16.94;66.35;99246.41;5043910;28;20045;-75
2023/09/19 05:03:13;;;;;;;9.25;2.58;;;;;;;16.88;66.29;99253.22;5043954;28;20492;-74
2023/09/19 05:05:40;;;;;;;16.90;2.47;;;;;;;17.08;66.38;99257.31;5043057;28;20056;-73
2023/09/19 05:08:06;;;;;;;6.63;1.98;;;;;;;17.01;65.98;99252.25;5044037;28;20040;-73
2023/09/19 05:10:32;;;;;;;10.23;3.15;;;;;;;17.10;65.80;99268.00;5043823;28;20041;-74
2023/09/19 05:12:57;;;;;;;12.18;2.28;;;;;;;16.87;65.99;99274.41;5043601;28;20473;-74
2023/09/19 05:15:23;;;;;;;7.57;2.07;;;;;;;16.74;66.54;99283.59;5042785;28;20083;-74
2023/09/19 05:17:54;;;;;;;10.32;2.35;;;;;;;16.84;66.72;99286.03;5043673;28;20262;-75
2023/09/19 05:20:37;;;;;;;15.52;2.80;;;;;;;16.85;66.57;99284.09;5043676;28;20025;-74
2023/09/19 05:23:08;;;;;;;8.37;2.47;;;;;;;16.65;66.56;99289.88;5043286;28;20033;-74
2023/09/19 05:25:39;;;;;;;10.00;2.97;;;;;;;16.59;66.89;99288.41;5042891;28;20750;-74
2023/09/19 05:28:09;;;;;;;13.85;3.08;;;;;;;16.66;66.75;99290.69;5044242;28;20593;-74
2023/09/19 05:30:35;;;;;;;8.63;2.55;;;;;;;16.67;66.89;99301.38;5043609;28;20078;-74
2023/09/19 05:33:02;;;;;;;9.02;2.63;;;;;;;16.67;66.65;99304.13;5043213;28;20033;-75
2023/09/19 05:35:27;;;;;;;17.17;2.75;;;;;;;16.68;66.14;99314.00;5042758;28;20041;-74
2023/09/19 05:37:54;;;;;;;15.90;2.88;;;;;;;16.55;66.57;99317.69;5043332;28;20029;-75
2023/09/19 05:40:20;;;;;;;9.20;2.95;;;;;;;16.51;66.54;99320.25;5043316;28;20013;-74
2023/09/19 05:42:46;;;;;;;19.48;3.05;;;;;;;16.53;66.98;99308.94;5043269;28;20059;-74
2023/09/19 05:45:12;;;;;;;7.72;2.22;;;;;;;16.64;66.76;99315.75;5041708;28;20044;-74
2023/09/19 05:47:42;;;;;;;18.83;2.80;;;;;;;16.59;67.12;99324.16;5042836;28;20043;-73
2023/09/19 05:50:09;;;;;;;10.40;2.58;;;;;;;16.66;66.84;99337.47;5042970;28;20557;-74
2023/09/19 05:52:38;;;;;;;8.60;2.60;;;;;;;16.75;66.64;99340.25;5042484;28;20161;-75
2023/09/19 05:55:08;;;;;;;11.18;2.28;;;;;;;16.84;66.47;99343.06;5042447;28;20040;-74
2023/09/19 05:57:38;;;;;;;5.53;1.83;;;;;;;16.80;66.50;99343.69;5042753;28;20033;-74
2023/09/19 06:00:08;;;;;;;4.93;1.67;;;;;;;16.76;66.51;99352.91;5042808;28;20025;-74
2023/09/19 06:02:35;;;;;;;22.65;5.15;;;;;;;16.78;66.19;99348.69;5042892;28;20055;-74
2023/09/19 06:05:01;;;;;;;11.55;2.33;;;;;;;16.73;66.56;99348.03;5042053;28;21203;-74
2023/09/19 06:07:27;;;;;;;7.68;2.28;;;;;;;16.66;66.30;99341.03;5042630;28;20076;-71
2023/09/19 06:09:56;;;;;;;5.07;2.38;;;;;;;16.78;66.43;99356.16;5042713;28;20033;-71
2023/09/19 06:12:21;;;;;;;9.18;2.58;;;;;;;16.72;66.30;99349.16;5042524;28;20115;-70
2023/09/19 06:14:47;;;;;;;17.53;3.67;;;;;;;16.83;66.92;99356.00;5042096;28;20638;-70
2023/09/19 06:17:12;;;;;;;12.05;2.70;;;;;;;17.02;65.99;99355.75;5042628;28;20265;-71
2023/09/19 06:19:38;;;;;;;7.45;2.28;;;;;;;16.99;66.06;99352.81;5042738;28;20106;-70
2023/09/19 06:22:03;;;;;;;8.90;2.55;;;;;;;16.97;66.41;99346.81;5042391;28;20040;-70
2023/09/19 06:24:28;;;;;;;17.13;2.63;;;;;;;17.12;66.27;99349.19;5042196;28;20040;-70
2023/09/19 06:26:54;;;;;;;9.97;1.87;;;;;;;16.91;66.38;99344.22;5042423;28;20052;-71
2023/09/19 06:29:20;;;;;;;7.60;2.45;;;;;;;16.89;66.27;99349.22;5042676;28;20255;-71
2023/09/19 06:31:46;;;;;;;12.98;3.58;;;;;;;16.83;66.81;99336.75;5042441;28;20029;-71
2023/09/19 06:34:13;;;;;;;11.95;2.75;;;;;;;16.83;66.95;99358.75;5041316;28;20607;-72
2023/09/19 06:36:39;;;;;;;13.70;3.15;;;;;;;16.83;66.80;99350.50;5042168;28;20062;-70
2023/09/19 06:39:06;;;;;;;7.28;2.35;;;;;;;16.64;67.26;99354.28;5042200;28;20481;-70
2023/09/19 06:41:31;;;;;;;15.23;2.72;;;;;;;16.76;67.25;99358.41;5041819;28;20087;-70
2023/09/19 06:43:57;;;;;;;13.30;2.10;;;;;;;16.72;67.08;99351.91;5040836;28;20079;-70
2023/09/19 06:46:23;;;;;;;20.63;3.28;;;;;;;16.84;67.08;99363.13;5041099;28;20139;-72
2023/09/19 06:48:49;;;;;;;12.63;2.83;;;;;;;16.74;67.02;99347.69;5042061;28;20424;-72
2023/09/19 06:51:16;;;;;;;8.25;1.52;;;;;;;16.71;66.99;99353.84;5041506;28;20033;-72
2023/09/19 06:53:41;;;;;;;9.77;2.22;;;;;;;16.96;67.10;99347.97;5041190;28;20106;-74
2023/09/19 06:56:07;;;;;;;8.13;1.83;;;;;;;16.87;66.89;99348.75;5042188;28;20475;-73
2023/09/19 06:58:32;;;;;;;11.00;2.37;;;;;;;17.14;66.86;99357.13;5042411;28;20045;-75
2023/09/19 07:00:57;;;;;;;11.60;1.73;;;;;;;17.08;66.90;99361.94;5040992;28;20271;-74
2023/09/19 07:03:26;;;;;;;9.80;1.95;;;;;;;17.09;67.02;99354.47;5042028;28;20094;-74
2023/09/19 07:05:52;;;;;;;13.15;3.13;;;;;;;17.17;66.79;99359.22;5044564;28;20052;-73
2023/09/19 07:08:19;;;;;;;10.05;1.83;;;;;;;17.29;66.38;99364.13;5045041;28;20052;-73
2023/09/19 07:10:48;;;;;;;7.00;2.40;;;;;;;17.28;66.12;99368.03;5045714;28;20064;-72
2023/09/19 07:13:16;;;;;;;11.25;3.65;;;;;;;17.35;66.31;99356.53;5044571;28;20422;-74
2023/09/19 07:15:46;;;;;;;14.43;4.20;;;;;;;17.38;65.84;99362.22;5047012;28;20040;-75
2023/09/19 07:18:12;;;;;;;8.30;2.10;;;;;;;17.35;66.11;99357.31;5052070;28;20063;-78
2023/09/19 07:20:38;;;;;;;14.63;2.75;;;;;;;17.42;65.90;99358.81;5056777;28;20056;-77
2023/09/19 07:23:03;;;;;;;14.05;2.83;;;;;;;17.32;66.07;99368.19;5054115;28;20486;-82
2023/09/19 07:25:29;;;;;;;11.77;1.98;;;;;;;17.44;65.79;99371.13;5051984;28;20040;-78
2023/09/19 07:27:56;;;;;;;15.30;3.58;;;;;;;17.17;66.09;99372.22;5054472;28;20029;-85
2023/09/19 07:30:21;;;;;;;9.13;2.17;;;;;;;17.27;66.29;99371.88;5055523;28;20109;-83
2023/09/19 07:32:47;;;;;;;15.90;2.83;;;;;;;17.38;66.01;99384.25;5055381;28;20029;-84
2023/09/19 07:35:12;;;;;;;9.50;2.53;;;;;;;17.49;66.05;99390.25;5052614;28;20025;-81
2023/09/19 07:37:38;;;;;;;11.88;2.55;;;;;;;17.43;65.87;99385.25;5046763;28;21409;-80
2023/09/19 07:40:07;;;;;;;13.68;3.72;;;;;;;17.44;66.09;99384.91;5049988;28;20438;-81
2023/09/19 07:42:38;;;;;;;17.67;3.53;;;;;;;17.59;65.67;99383.63;5053429;28;20139;-91
2023/09/19 07:45:04;;;;;;;17.65;2.42;;;;;;;17.75;65.15;99372.16;5055602;28;20025;-82
2023/09/19 07:47:32;;;;;;;15.45;2.80;;;;;;;17.55;65.74;99377.16;5053469;28;20025;-84
2023/09/19 07:49:57;;;;;;;21.15;3.13;;;;;;;17.64;65.14;99393.69;5053088;28;20024;-86
2023/09/19 07:52:22;;;;;;;8.35;2.00;;;;;;;17.61;65.49;99392.38;5052205;28;20139;-79
2023/09/19 07:54:49;;;;;;;11.25;3.72;;;;;;;17.59;65.47;99388.34;5044351;28;20137;-78
2023/09/19 07:57:15;;;;;;;16.52;2.50;;;;;;;17.48;65.74;99383.13;5046163;28;20087;-77
2023/09/19 07:59:42;;;;;;;7.97;2.25;;;;;;;17.65;65.79;99391.75;5045119;28;20025;-82
2023/09/19 08:02:09;;;;;;;7.75;2.17;;;;;;;17.74;65.26;99387.06;5045709;28;20036;-73
2023/09/19 08:04:35;;;;;;;8.85;2.22;;;;;;;17.90;65.08;99389.38;5044831;28;20029;-77
2023/09/19 08:07:03;;;;;;;11.85;3.13;;;;;;;17.69;64.93;99395.50;5044628;28;20048;-81
2023/09/19 08:09:32;;;;;;;13.93;3.13;;;;;;;17.73;65.84;99393.72;5045750;28;20242;-83
2023/09/19 08:11:58;;;;;;;12.73;2.38;;;;;;;17.73;65.32;99397.28;5045699;28;20041;-78
2023/09/19 08:14:24;;;;;;;21.17;5.47;;;;;;;17.69;65.30;99403.75;5044523;28;20044;-83
2023/09/19 08:16:50;;;;;;;10.57;2.20;;;;;;;17.82;65.45;99408.31;5044894;28;20328;-79
2023/09/19 08:19:15;;;;;;;11.83;2.97;;;;;;;17.76;65.10;99408.81;5045294;28;20819;-82
2023/09/19 08:21:40;;;;;;;14.00;3.47;;;;;;;17.81;64.83;99405.88;5044882;28;20276;-81
2023/09/19 08:24:06;;;;;;;11.43;3.42;;;;;;;17.85;64.91;99406.88;5044766;28;20329;-82
2023/09/19 08:26:31;;;;;;;13.48;2.80;;;;;;;17.81;65.03;99405.88;5045535;28;20029;-81
2023/09/19 08:28:57;;;;;;;16.00;2.58;;;;;;;17.99;65.62;99409.47;5044819;28;20198;-80
2023/09/19 08:31:23;;;;;;;12.43;2.57;;;;;;;17.91;65.36;99416.59;5045325;28;20526;-80
2023/09/19 08:33:51;;;;;;;11.48;2.42;;;;;;;18.06;65.11;99418.06;5044101;28;20806;-81
2023/09/19 08:36:16;;;;;;;12.05;3.08;;;;;;;18.01;64.89;99421.00;5044637;28;20025;-76
2023/09/19 08:38:42;;;;;;;10.75;3.75;;;;;;;18.07;64.87;99416.13;5044809;28;20044;-80
2023/09/19 08:41:08;;;;;;;9.30;3.47;;;;;;;18.13;64.50;99427.78;5043325;28;20312;-80
2023/09/19 08:43:34;;;;;;;11.30;2.53;;;;;;;18.03;64.98;99423.41;5043878;28;20106;-81
2023/09/19 08:46:05;;;;;;;11.70;3.38;;;;;;;17.97;64.49;99420.00;5044672;28;20058;-80
2023/09/19 08:48:31;;;;;;;9.18;2.22;;;;;;;17.80;65.41;99421.59;5044220;28;20040;-83
2023/09/19 08:51:06;;;;;;;7.68;2.58;;;;;;;18.06;65.39;99418.06;5044746;28;20060;-82
2023/09/19 08:53:46;;;;;;;12.77;2.70;;;;;;;18.06;64.98;99418.06;5051855;28;20119;-87
2023/09/19 08:56:13;;;;;;;9.63;2.03;;;;;;;18.10;64.93;99426.53;5054586;28;20033;-84
2023/09/19 08:58:46;;;;;;;11.63;2.80;;;;;;;18.11;64.60;99424.53;5047414;28;20025;-75
2023/09/19 09:01:15;;;;;;;11.02;3.58;;;;;;;18.30;64.57;99422.31;5045170;28;20483;-83
2023/09/19 09:03:43;;;;;;;8.18;2.83;;;;;;;18.46;63.80;99413.53;5044478;28;20099;-81
2023/09/19 09:06:14;;;;;;;11.43;2.72;;;;;;;18.57;63.69;99418.72;5043763;28;20045;-81
2023/09/19 09:08:40;;;;;;;8.27;2.05;;;;;;;18.42;63.45;99418.09;5047624;28;20061;-80
2023/09/19 09:11:07;;;;;;;12.15;2.33;;;;;;;18.18;64.30;99419.41;5050186;28;20029;-81
2023/09/19 09:13:35;;;;;;;13.45;3.72;;;;;;;18.50;63.90;99427.47;5052935;28;20437;-80
2023/09/19 09:16:01;;;;;;;14.15;2.72;;;;;;;18.71;63.16;99429.56;5053088;28;20028;-80
2023/09/19 09:18:27;;;;;;;15.57;3.63;;;;;;;18.66;62.96;99422.25;5053458;28;20029;-81
2023/09/19 09:20:53;;;;;;;8.82;2.55;;;;;;;18.90;62.51;99415.38;5050213;28;20281;-80
2023/09/19 09:23:18;;;;;;;9.27;2.80;;;;;;;18.90;62.04;99410.66;5052677;28;20429;-81
2023/09/19 09:25:54;;;;;;;12.70;3.20;;;;;;;18.74;61.78;99413.16;5052497;28;20278;-80
2023/09/19 09:28:25;;;;;;;7.90;2.17;;;;;;;18.74;62.32;99417.84;5050300;28;20021;-80
2023/09/19 09:30:50;;;;;;;10.40;2.78;;;;;;;18.79;61.91;99392.84;5049915;28;20033;-76
2023/09/19 09:33:16;;;;;;;9.93;1.80;;;;;;;18.82;61.60;99399.63;5044920;28;20135;-75
2023/09/19 09:35:57;;;;;;;12.18;2.58;;;;;;;19.02;61.18;99409.16;5042901;28;20040;-75
2023/09/19 09:38:27;;;;;;;7.97;1.77;;;;;;;19.04;61.10;99409.63;5043855;28;20036;-77
2023/09/19 09:43:29;;;;;;;12.27;2.83;;;;;;;19.24;60.99;99413.63;5043489;28;20052;-76
2023/09/19 09:51:48;;;;;;;14.27;3.08;;;;;;;19.34;59.47;99406.91;5043400;28;20465;-76
2023/09/19 09:54:20;;;;;;;13.10;4.00;;;;;;;19.04;58.01;99395.03;5043000;28;20116;-75
2023/09/19 09:56:58;;;;;;;12.90;3.45;;;;;;;19.24;59.17;99402.59;5043178;28;20044;-74
2023/09/19 09:59:46;;;;;;;12.70;2.47;;;;;;;19.51;58.98;99401.63;5042016;28;20055;-75
2023/09/19 10:02:25;;;;;;;8.98;2.20;;;;;;;19.65;59.17;99404.97;5042907;28;20037;-75
2023/09/19 10:07:38;;;;;;;8.23;2.15;;;;;;;19.73;58.46;99410.78;5043848;28;20051;-76
2023/09/19 10:10:11;;;;;;;15.98;3.28;;;;;;;19.87;57.76;99399.47;5043571;28;20041;-75
2023/09/19 10:12:43;;;;;;;9.65;2.03;;;;;;;19.90;57.04;99402.34;5043933;28;20441;-76
2023/09/19 10:15:11;;;;;;;17.60;2.00;;;;;;;19.53;57.12;99385.50;5043088;28;20040;-76
2023/09/19 10:17:38;;;;;;;15.50;2.70;;;;;;;19.62;56.86;99391.81;5043863;28;20398;-76
2023/09/19 10:20:19;;;;;;;13.68;2.60;;;;;;;19.85;56.74;99394.28;5043414;28;20037;-76
2023/09/19 10:22:56;;;;;;;11.52;2.50;;;;;;;20.03;56.84;99385.81;5044562;28;20033;-76
2023/09/19 10:25:25;;;;;;;9.57;2.25;;;;;;;20.30;56.40;99384.47;5042612;28;20534;-76
2023/09/19 10:27:53;;;;;;;11.32;3.17;;;;;;;20.51;56.62;99397.44;5042843;28;20120;-77
2023/09/19 10:30:20;;;;;;;8.32;2.42;;;;;;;20.48;55.11;99397.34;5042996;28;20029;-76
2023/09/19 10:32:47;;;;;;;13.13;2.20;;;;;;;20.38;54.84;99388.28;5044323;28;20132;-78
2023/09/19 10:35:14;;;;;;;11.80;2.50;;;;;;;20.42;54.49;99378.16;5041801;28;20064;-76
2023/09/19 10:37:43;;;;;;;9.65;2.15;;;;;;;20.45;54.45;99384.16;5042503;28;20040;-76
2023/09/19 10:40:09;;;;;;;13.57;2.90;;;;;;;20.23;53.87;99369.56;5045627;28;20432;-77
2023/09/19 10:42:40;;;;;;;68.50;7.60;;;;;;;20.41;54.75;99379.31;5047207;28;20029;-75
2023/09/19 10:45:12;;;;;;;8.45;1.92;;;;;;;20.40;53.79;99380.44;5046536;28;20048;-80
2023/09/19 10:47:38;;;;;;;12.10;2.75;;;;;;;20.47;53.75;99371.59;5046543;28;20479;-79
2023/09/19 10:50:05;;;;;;;11.75;2.90;;;;;;;20.68;53.40;99381.00;5046582;28;20083;-79
2023/09/19 10:52:34;;;;;;;7.32;2.30;;;;;;;20.62;52.85;99383.19;5046865;28;20044;-79
2023/09/19 10:55:01;;;;;;;12.43;2.58;;;;;;;20.62;53.75;99378.47;5046873;28;20094;-81
2023/09/19 10:57:30;;;;;;;14.60;2.97;;;;;;;20.64;53.72;99376.13;5046919;28;20071;-76
2023/09/19 11:00:24;;;;;;;9.20;1.85;;;;;;;20.63;53.31;99369.00;5046672;28;20417;-80
2023/09/19 11:03:17;;;;;;;13.52;3.63;;;;;;;20.64;52.53;99378.09;5046663;28;20051;-81
2023/09/19 11:05:42;;;;;;;6.93;1.75;;;;;;;20.75;52.57;99376.50;5045669;28;20049;-81
2023/09/19 11:08:08;;;;;;;11.27;2.42;;;;;;;20.59;52.85;99379.13;5044928;28;20037;-82
2023/09/19 11:10:54;;;;;;;8.55;2.10;;;;;;;20.57;53.13;99375.91;5046586;28;20071;-80
2023/09/19 11:13:30;;;;;;;9.10;2.85;;;;;;;20.59;52.85;99383.84;5046746;28;20067;-80
2023/09/19 11:15:59;;;;;;;5.35;2.17;;;;;;;20.64;51.87;99375.34;5046352;28;20055;-80
2023/09/19 11:18:43;;;;;;;12.60;2.42;;;;;;;20.84;52.09;99379.19;5045750;28;20037;-79
2023/09/19 11:21:33;;;;;;;4.47;1.70;;;;;;;21.09;51.59;99367.34;5046770;28;20126;-81
2023/09/19 11:24:30;;;;;;;6.28;2.42;;;;;;;21.26;51.52;99365.47;5045494;28;20037;-81
2023/09/19 11:27:13;;;;;;;10.25;2.58;;;;;;;21.02;51.40;99369.88;5044004;28;20049;-80
2023/09/19 11:29:40;;;;;;;9.40;1.98;;;;;;;21.15;51.22;99363.19;5046259;28;20040;-80
2023/09/19 11:32:06;;;;;;;9.50;1.70;;;;;;;21.38;50.80;99365.47;5046198;28;20144;-80
2023/09/19 11:34:37;;;;;;;8.45;2.25;;;;;;;21.46;50.76;99352.63;5045701;28;20128;-80
2023/09/19 11:37:28;;;;;;;10.35;2.03;;;;;;;21.42;50.28;99365.56;5046234;28;20508;-82
2023/09/19 11:40:13;;;;;;;13.02;2.50;;;;;;;21.10;49.95;99364.22;5045660;28;20079;-78
2023/09/19 11:42:45;;;;;;;8.77;2.58;;;;;;;21.18;50.21;99361.66;5045767;28;20067;-79
2023/09/19 11:45:56;;;;;;;6.25;1.40;;;;;;;21.28;50.28;99363.97;5045044;28;20555;-77
2023/09/19 11:48:25;;;;;;;9.55;2.38;;;;;;;21.31;50.43;99354.97;5045607;28;20044;-78